createdAt,value
2022-08-25T00:03:51.926Z,6.2
2022-08-25T00:08:51.937Z,6.6
2022-08-25T00:13:52.169Z,5.6
2022-08-25T00:18:52.008Z,6.0
2022-08-25T00:23:51.909Z,6.6
2022-08-25T00:28:52.201Z,6.5
2022-08-25T00:33:52.079Z,6.4
2022-08-25T00:38:51.950Z,6.9
2022-08-25T00:43:51.906Z,5.8
2022-08-25T00:48:51.953Z,7.1
2022-08-25T00:53:51.937Z,6.4
2022-08-25T00:58:52.052Z,6.6
2022-08-25T01:03:51.863Z,5.9
2022-08-25T01:08:51.975Z,6.1
2022-08-25T01:13:52.108Z,6.7
2022-08-25T01:18:51.870Z,7.8
2022-08-25T01:23:51.832Z,7.4
2022-08-25T01:28:52.106Z,7.3
2022-08-25T01:33:51.895Z,7.4
2022-08-25T01:38:51.882Z,7.4
2022-08-25T01:43:51.778Z,7.0
2022-08-25T01:48:51.867Z,7.4
2022-08-25T01:53:51.873Z,7.0
2022-08-25T01:58:52.083Z,7.6
2022-08-25T02:03:51.770Z,6.7
2022-08-25T02:08:51.955Z,6.8
2022-08-25T02:13:52.058Z,8.1
2022-08-25T02:18:51.899Z,7.7
2022-08-25T02:23:51.864Z,8.3
2022-08-25T02:28:52.107Z,7.4
2022-08-25T02:33:51.758Z,8.1
2022-08-25T02:38:51.761Z,8.7
2022-08-25T02:43:52.023Z,8.3
2022-08-25T02:48:51.843Z,8.3
2022-08-25T02:53:51.777Z,8.0
2022-08-25T02:58:51.705Z,7.6
2022-08-25T03:03:51.826Z,8.7
2022-08-25T03:08:52.176Z,8.3
2022-08-25T03:13:51.962Z,7.7
2022-08-25T03:18:51.593Z,8.2
2022-08-25T03:23:51.654Z,6.5
2022-08-25T03:28:51.793Z,7.6
2022-08-25T03:33:51.791Z,7.4
2022-08-25T03:38:51.621Z,7.4
2022-08-25T03:43:51.662Z,8.0
2022-08-25T03:48:51.684Z,8.1
2022-08-25T03:53:51.662Z,7.7
2022-08-25T03:58:51.807Z,8.5
2022-08-25T04:03:51.744Z,7.8
2022-08-25T04:08:51.674Z,8.0
2022-08-25T04:13:51.950Z,7.4
2022-08-25T04:18:51.499Z,8.2
2022-08-25T04:23:51.617Z,7.7
2022-08-25T04:28:51.719Z,8.6
2022-08-25T04:33:51.611Z,7.7
2022-08-25T04:38:51.513Z,7.2
2022-08-25T04:43:51.719Z,6.7
2022-08-25T04:48:51.568Z,8.3
2022-08-25T04:53:51.601Z,8.5
2022-08-25T04:58:51.467Z,7.4
2022-08-25T05:03:51.604Z,7.6
2022-08-25T05:08:51.651Z,7.7
2022-08-25T05:13:51.855Z,6.7
2022-08-25T05:18:51.498Z,8.3
2022-08-25T05:23:51.509Z,7.8
2022-08-25T05:28:51.636Z,7.4
2022-08-25T05:33:51.342Z,7.6
2022-08-25T05:38:51.454Z,7.4
2022-08-25T05:43:51.698Z,7.3
2022-08-25T05:48:51.507Z,7.2
2022-08-25T05:53:51.549Z,6.5
2022-08-25T05:58:51.606Z,6.2
2022-08-25T06:03:51.385Z,6.8
2022-08-25T06:08:51.362Z,8.1
2022-08-25T06:13:51.523Z,7.3
2022-08-25T06:18:51.352Z,6.6
2022-08-25T06:23:51.407Z,7.9
2022-08-25T06:28:51.589Z,6.7
2022-08-25T06:33:51.335Z,6.5
2022-08-25T06:38:51.450Z,5.5
2022-08-25T06:43:55.880Z,6.1
2022-08-25T06:48:51.543Z,6.4
2022-08-25T06:53:51.292Z,6.2
2022-08-25T06:58:51.551Z,6.5
2022-08-25T07:03:52.549Z,7.0
2022-08-25T07:08:51.366Z,5.9
2022-08-25T07:13:52.043Z,6.1
2022-08-25T07:18:51.357Z,7.4
2022-08-25T07:23:52.037Z,6.3
2022-08-25T07:28:51.456Z,7.3
2022-08-25T07:33:51.275Z,7.2
2022-08-25T07:38:51.332Z,6.7
2022-08-25T07:43:51.548Z,6.6
2022-08-25T07:48:53.211Z,7.4
2022-08-25T07:53:51.289Z,6.9
2022-08-25T07:58:51.577Z,7.3
2022-08-25T08:03:51.693Z,7.3
2022-08-25T08:08:54.755Z,7.0
2022-08-25T08:13:51.644Z,6.9
2022-08-25T08:18:51.216Z,7.0
2022-08-25T08:23:55.422Z,8.0
2022-08-25T08:28:51.930Z,6.3
2022-08-25T08:33:51.170Z,7.1
2022-08-25T08:38:51.310Z,6.9
2022-08-25T08:43:51.283Z,7.3
2022-08-25T08:48:51.222Z,7.6
2022-08-25T08:53:51.140Z,6.5
2022-08-25T08:58:51.446Z,7.1
2022-08-25T09:03:55.373Z,8.8
2022-08-25T09:08:51.207Z,6.7
2022-08-25T09:13:51.520Z,7.1
2022-08-25T09:18:52.416Z,7.9
2022-08-25T09:23:51.101Z,7.7
2022-08-25T09:28:51.436Z,6.6
2022-08-25T09:33:51.163Z,7.1
2022-08-25T09:38:51.139Z,6.4
2022-08-25T09:43:51.373Z,8.2
2022-08-25T09:48:56.713Z,7.2
2022-08-25T09:53:51.056Z,7.2
2022-08-25T09:58:51.293Z,6.3
2022-08-25T10:03:51.299Z,7.2
2022-08-25T10:08:51.087Z,5.9
2022-08-25T10:13:51.820Z,6.5
2022-08-25T10:18:51.110Z,8.0
2022-08-25T10:23:51.119Z,6.7
2022-08-25T10:28:51.235Z,6.8
2022-08-25T10:33:51.073Z,7.0
2022-08-25T10:38:51.058Z,5.9
2022-08-25T10:43:51.253Z,6.4
2022-08-25T10:48:51.033Z,6.8
2022-08-25T10:53:51.000Z,6.1
2022-08-25T10:58:51.312Z,7.1
2022-08-25T11:03:51.140Z,6.7
2022-08-25T11:08:50.983Z,7.6
2022-08-25T11:13:51.129Z,7.1
2022-08-25T11:18:50.985Z,6.6
2022-08-25T11:23:50.992Z,7.3
2022-08-25T11:28:50.925Z,7.1
2022-08-25T11:33:51.188Z,6.0
2022-08-25T11:38:51.040Z,6.5
2022-08-25T11:43:50.989Z,7.0
2022-08-25T11:48:51.086Z,7.2
2022-08-25T11:53:51.058Z,8.1
2022-08-25T11:58:50.962Z,7.5
2022-08-25T12:03:51.555Z,6.4
2022-08-25T12:08:51.377Z,7.6
2022-08-25T12:13:51.121Z,7.7
2022-08-25T12:18:50.966Z,8.2
2022-08-25T12:23:53.259Z,6.3
2022-08-25T12:28:50.975Z,5.4
2022-08-25T12:33:51.092Z,6.5
2022-08-25T12:38:52.297Z,6.7
2022-08-25T12:43:50.923Z,6.4
2022-08-25T12:48:51.119Z,5.1
2022-08-25T12:53:50.893Z,5.4
2022-08-25T12:59:00.243Z,5.4
2022-08-25T13:03:50.765Z,6.2
2022-08-25T13:08:51.721Z,6.0
2022-08-25T13:13:50.815Z,6.9
2022-08-25T13:18:51.579Z,7.0
2022-08-25T13:23:53.855Z,5.8
2022-08-25T13:28:50.987Z,6.9
2022-08-25T13:33:51.245Z,5.8
2022-08-25T13:38:50.892Z,6.0
2022-08-25T13:43:51.436Z,6.2
2022-08-25T13:48:51.167Z,5.5
2022-08-25T13:53:50.898Z,6.1
2022-08-25T13:58:50.932Z,6.0
2022-08-25T14:03:51.198Z,4.9
2022-08-25T14:08:54.790Z,5.5
2022-08-25T14:13:50.849Z,5.2
2022-08-25T14:18:51.061Z,5.0
2022-08-25T14:23:50.740Z,5.2
2022-08-25T14:28:50.695Z,5.0
2022-08-25T14:33:50.757Z,5.1
2022-08-25T14:38:54.467Z,4.7
2022-08-25T14:43:51.010Z,5.3
2022-08-25T14:48:50.692Z,4.9
2022-08-25T14:53:50.733Z,5.9
2022-08-25T14:58:54.338Z,4.3
2022-08-25T15:03:50.783Z,5.0
2022-08-25T15:08:50.681Z,6.2
2022-08-25T15:13:50.837Z,5.9
2022-08-25T15:18:50.724Z,5.1
2022-08-25T15:23:53.150Z,5.1
2022-08-25T15:28:50.973Z,4.9
2022-08-25T15:33:51.438Z,4.5
2022-08-25T15:38:50.732Z,4.1
2022-08-25T15:43:51.693Z,5.3
2022-08-25T15:48:50.796Z,5.2
2022-08-25T15:53:50.692Z,5.1
2022-08-25T15:58:50.878Z,4.9
2022-08-25T16:03:50.683Z,5.0
2022-08-25T16:08:50.662Z,5.5
2022-08-25T16:13:50.895Z,5.9
2022-08-25T16:18:50.684Z,5.6
2022-08-25T16:23:50.604Z,6.2
2022-08-25T16:28:50.878Z,5.6
2022-08-25T16:33:53.502Z,5.7
2022-08-25T16:38:50.701Z,5.0
2022-08-25T16:43:50.539Z,4.8
2022-08-25T16:48:50.570Z,4.8
2022-08-25T16:53:50.504Z,4.8
2022-08-25T16:58:52.276Z,5.6
2022-08-25T17:03:50.562Z,5.3
2022-08-25T17:08:50.528Z,4.5
2022-08-25T17:13:50.741Z,12.0
2022-08-25T17:18:50.529Z,8.5
2022-08-25T17:23:51.325Z,5.9
2022-08-25T17:28:50.771Z,6.7
2022-08-25T17:33:50.514Z,9.7
2022-08-25T17:38:51.663Z,8.0
2022-08-25T17:43:50.703Z,7.4
2022-08-25T17:48:50.513Z,7.3
2022-08-25T17:53:50.732Z,9.5
2022-08-25T17:58:50.735Z,7.9
2022-08-25T18:03:51.707Z,8.7
2022-08-25T18:08:51.715Z,7.1
2022-08-25T18:13:50.966Z,7.5
2022-08-25T18:18:50.446Z,6.6
2022-08-25T18:23:52.845Z,6.1
2022-08-25T18:28:54.114Z,6.8
2022-08-25T18:33:53.554Z,7.1
2022-08-25T18:38:57.823Z,5.8
2022-08-25T18:43:53.273Z,7.4
2022-08-25T18:48:53.218Z,5.5
2022-08-25T18:53:54.617Z,6.6
2022-08-25T18:58:52.730Z,6.5
2022-08-25T19:03:57.181Z,5.9
2022-08-25T19:08:52.877Z,6.3
2022-08-25T19:13:52.837Z,6.5
2022-08-25T19:18:55.458Z,7.6
2022-08-25T19:23:54.249Z,11.9
2022-08-25T19:28:52.948Z,12.6
2022-08-25T19:33:52.898Z,10.5
2022-08-25T19:38:52.617Z,10.3
2022-08-25T19:43:56.391Z,7.5
2022-08-25T19:48:52.738Z,6.5
2022-08-25T19:53:54.766Z,6.7
2022-08-25T19:58:52.656Z,7.9
2022-08-25T20:03:52.809Z,9.7
2022-08-25T20:08:58.894Z,10.4
2022-08-25T20:13:52.729Z,13.3
2022-08-25T20:18:52.514Z,10.5
2022-08-25T20:23:52.809Z,10.1
2022-08-25T20:28:52.752Z,10.3
2022-08-25T20:33:52.692Z,9.6
2022-08-25T20:38:52.561Z,9.1
2022-08-25T20:43:52.707Z,8.0
2022-08-25T20:48:52.624Z,7.9
2022-08-25T20:53:52.609Z,8.3
2022-08-25T20:58:52.592Z,8.2
2022-08-25T21:03:52.605Z,8.1
2022-08-25T21:08:52.769Z,7.9
2022-08-25T21:13:52.607Z,8.4
2022-08-25T21:18:52.530Z,8.7
2022-08-25T21:23:52.561Z,8.9
2022-08-25T21:28:52.629Z,8.3
2022-08-25T21:33:52.696Z,9.0
2022-08-25T21:38:52.847Z,8.9
2022-08-25T21:43:52.567Z,8.9
2022-08-25T21:48:52.537Z,9.5
2022-08-25T21:53:52.465Z,9.2
2022-08-25T21:58:52.518Z,10.1
2022-08-25T22:03:52.637Z,9.3
2022-08-25T22:08:52.444Z,9.6
2022-08-25T22:13:52.491Z,9.7
2022-08-25T22:18:52.568Z,9.0
2022-08-25T22:23:52.374Z,9.2
2022-08-25T22:28:52.351Z,8.8
2022-08-25T22:33:52.629Z,9.8
2022-08-25T22:38:52.384Z,8.4
2022-08-25T22:43:52.881Z,7.8
2022-08-25T22:48:52.476Z,7.9
2022-08-25T22:53:52.375Z,7.6
2022-08-25T22:58:52.329Z,8.0
2022-08-25T23:03:52.611Z,8.2
2022-08-25T23:08:52.301Z,8.4
2022-08-25T23:13:52.289Z,8.0
2022-08-25T23:18:52.450Z,7.5
2022-08-25T23:23:52.316Z,8.2
2022-08-25T23:28:52.513Z,7.7
2022-08-25T23:33:52.885Z,6.3
2022-08-25T23:38:52.358Z,7.2
2022-08-25T23:43:52.490Z,7.1
2022-08-25T23:48:52.489Z,6.0
2022-08-25T23:53:52.330Z,6.7
2022-08-25T23:58:52.415Z,6.7
